sensor_id;sensor_type;location;lat;lon;timestamp;P1;durP1;ratioP1;P2;durP2;ratioP2
4547;SDS011;2286;51.570;7.090;2022-07-11T00:01:36;4.20;;;3.00;;
4547;SDS011;2286;51.570;7.090;2022-07-11T00:04:03;7.77;;;3.47;;
4547;SDS011;2286;51.570;7.090;2022-07-11T00:06:30;4.07;;;2.60;;
4547;SDS011;2286;51.570;7.090;2022-07-11T00:08:59;4.90;;;3.80;;
4547;SDS011;2286;51.570;7.090;2022-07-11T00:11:26;6.93;;;3.87;;
4547;SDS011;2286;51.570;7.090;2022-07-11T00:13:53;4.10;;;2.93;;
4547;SDS011;2286;51.570;7.090;2022-07-11T00:16:20;3.30;;;3.00;;
4547;SDS011;2286;51.570;7.090;2022-07-11T00:18:47;6.13;;;4.20;;
4547;SDS011;2286;51.570;7.090;2022-07-11T00:21:14;10.13;;;2.60;;
4547;SDS011;2286;51.570;7.090;2022-07-11T00:23:41;4.73;;;2.80;;
4547;SDS011;2286;51.570;7.090;2022-07-11T00:26:09;5.27;;;3.10;;
4547;SDS011;2286;51.570;7.090;2022-07-11T00:28:36;4.40;;;3.03;;
4547;SDS011;2286;51.570;7.090;2022-07-11T00:31:03;5.00;;;3.43;;
4547;SDS011;2286;51.570;7.090;2022-07-11T00:33:32;6.33;;;3.23;;
4547;SDS011;2286;51.570;7.090;2022-07-11T00:35:59;4.00;;;3.07;;
4547;SDS011;2286;51.570;7.090;2022-07-11T00:38:26;4.70;;;3.67;;
4547;SDS011;2286;51.570;7.090;2022-07-11T00:40:53;5.00;;;3.00;;
4547;SDS011;2286;51.570;7.090;2022-07-11T00:43:29;4.70;;;2.60;;
4547;SDS011;2286;51.570;7.090;2022-07-11T00:45:57;5.23;;;2.80;;
4547;SDS011;2286;51.570;7.090;2022-07-11T00:48:24;6.93;;;3.50;;
4547;SDS011;2286;51.570;7.090;2022-07-11T00:50:51;5.30;;;3.33;;
4547;SDS011;2286;51.570;7.090;2022-07-11T00:53:18;5.30;;;3.43;;
4547;SDS011;2286;51.570;7.090;2022-07-11T00:55:46;5.90;;;3.53;;
4547;SDS011;2286;51.570;7.090;2022-07-11T00:58:13;7.57;;;3.10;;
4547;SDS011;2286;51.570;7.090;2022-07-11T01:00:42;5.03;;;3.10;;
4547;SDS011;2286;51.570;7.090;2022-07-11T01:03:09;4.00;;;3.10;;
4547;SDS011;2286;51.570;7.090;2022-07-11T01:05:36;5.10;;;4.07;;
4547;SDS011;2286;51.570;7.090;2022-07-11T01:08:03;3.93;;;2.90;;
4547;SDS011;2286;51.570;7.090;2022-07-11T01:10:30;6.40;;;3.17;;
4547;SDS011;2286;51.570;7.090;2022-07-11T01:12:57;7.37;;;3.07;;
4547;SDS011;2286;51.570;7.090;2022-07-11T01:15:25;3.90;;;3.03;;
4547;SDS011;2286;51.570;7.090;2022-07-11T01:17:53;6.03;;;3.47;;
4547;SDS011;2286;51.570;7.090;2022-07-11T01:20:20;7.70;;;3.57;;
4547;SDS011;2286;51.570;7.090;2022-07-11T01:22:51;6.77;;;3.70;;
4547;SDS011;2286;51.570;7.090;2022-07-11T01:25:22;5.60;;;3.20;;
4547;SDS011;2286;51.570;7.090;2022-07-11T01:27:56;5.60;;;3.40;;
4547;SDS011;2286;51.570;7.090;2022-07-11T01:30:23;8.67;;;3.13;;
4547;SDS011;2286;51.570;7.090;2022-07-11T01:32:52;8.93;;;3.47;;
4547;SDS011;2286;51.570;7.090;2022-07-11T01:35:18;5.60;;;3.47;;
4547;SDS011;2286;51.570;7.090;2022-07-11T01:37:46;4.57;;;3.43;;
4547;SDS011;2286;51.570;7.090;2022-07-11T01:40:13;4.90;;;3.83;;
4547;SDS011;2286;51.570;7.090;2022-07-11T01:42:41;8.60;;;6.50;;
4547;SDS011;2286;51.570;7.090;2022-07-11T01:45:09;13.47;;;9.37;;
4547;SDS011;2286;51.570;7.090;2022-07-11T01:47:37;12.93;;;10.30;;
4547;SDS011;2286;51.570;7.090;2022-07-11T01:50:04;13.93;;;9.20;;
4547;SDS011;2286;51.570;7.090;2022-07-11T01:52:32;12.50;;;8.27;;
4547;SDS011;2286;51.570;7.090;2022-07-11T01:55:00;10.10;;;6.77;;
4547;SDS011;2286;51.570;7.090;2022-07-11T01:57:27;11.60;;;5.80;;
4547;SDS011;2286;51.570;7.090;2022-07-11T01:59:55;8.40;;;4.90;;
4547;SDS011;2286;51.570;7.090;2022-07-11T02:02:22;10.47;;;4.13;;
4547;SDS011;2286;51.570;7.090;2022-07-11T02:04:49;11.10;;;4.47;;
4547;SDS011;2286;51.570;7.090;2022-07-11T02:07:16;7.07;;;3.37;;
4547;SDS011;2286;51.570;7.090;2022-07-11T02:10:03;6.53;;;3.50;;
4547;SDS011;2286;51.570;7.090;2022-07-11T02:12:30;6.20;;;3.90;;
4547;SDS011;2286;51.570;7.090;2022-07-11T02:14:58;7.53;;;3.17;;
4547;SDS011;2286;51.570;7.090;2022-07-11T02:17:25;8.50;;;4.60;;
4547;SDS011;2286;51.570;7.090;2022-07-11T02:19:52;6.47;;;3.50;;
4547;SDS011;2286;51.570;7.090;2022-07-11T02:22:19;6.90;;;3.10;;
4547;SDS011;2286;51.570;7.090;2022-07-11T02:24:46;8.40;;;3.50;;
4547;SDS011;2286;51.570;7.090;2022-07-11T02:27:13;7.27;;;3.70;;
4547;SDS011;2286;51.570;7.090;2022-07-11T02:29:40;4.23;;;2.93;;
4547;SDS011;2286;51.570;7.090;2022-07-11T02:32:08;8.00;;;3.83;;
4547;SDS011;2286;51.570;7.090;2022-07-11T02:34:35;7.47;;;3.50;;
4547;SDS011;2286;51.570;7.090;2022-07-11T02:37:02;8.90;;;4.10;;
4547;SDS011;2286;51.570;7.090;2022-07-11T02:39:30;7.50;;;2.90;;
4547;SDS011;2286;51.570;7.090;2022-07-11T02:41:57;9.83;;;3.57;;
4547;SDS011;2286;51.570;7.090;2022-07-11T02:44:24;7.27;;;3.43;;
4547;SDS011;2286;51.570;7.090;2022-07-11T02:46:51;7.90;;;3.17;;
4547;SDS011;2286;51.570;7.090;2022-07-11T02:49:19;6.87;;;3.23;;
4547;SDS011;2286;51.570;7.090;2022-07-11T02:51:48;11.43;;;3.80;;
4547;SDS011;2286;51.570;7.090;2022-07-11T02:54:15;6.50;;;3.27;;
4547;SDS011;2286;51.570;7.090;2022-07-11T02:56:42;5.80;;;3.80;;
4547;SDS011;2286;51.570;7.090;2022-07-11T02:59:08;6.13;;;3.50;;
4547;SDS011;2286;51.570;7.090;2022-07-11T03:01:35;8.67;;;3.40;;
4547;SDS011;2286;51.570;7.090;2022-07-11T03:04:02;6.57;;;3.30;;
4547;SDS011;2286;51.570;7.090;2022-07-11T03:06:31;7.13;;;3.40;;
4547;SDS011;2286;51.570;7.090;2022-07-11T03:08:58;6.33;;;3.10;;
4547;SDS011;2286;51.570;7.090;2022-07-11T03:11:25;4.10;;;3.23;;
4547;SDS011;2286;51.570;7.090;2022-07-11T03:13:52;5.07;;;2.70;;
4547;SDS011;2286;51.570;7.090;2022-07-11T03:16:19;5.30;;;3.23;;
4547;SDS011;2286;51.570;7.090;2022-07-11T03:18:46;4.73;;;2.50;;
4547;SDS011;2286;51.570;7.090;2022-07-11T03:21:13;6.37;;;2.77;;
4547;SDS011;2286;51.570;7.090;2022-07-11T03:23:41;3.87;;;3.40;;
4547;SDS011;2286;51.570;7.090;2022-07-11T03:26:08;2.90;;;2.70;;
4547;SDS011;2286;51.570;7.090;2022-07-11T03:28:35;6.50;;;2.90;;
4547;SDS011;2286;51.570;7.090;2022-07-11T03:31:02;4.07;;;2.60;;
4547;SDS011;2286;51.570;7.090;2022-07-11T03:33:29;2.93;;;2.67;;
4547;SDS011;2286;51.570;7.090;2022-07-11T03:35:55;4.00;;;3.07;;
4547;SDS011;2286;51.570;7.090;2022-07-11T03:38:22;4.63;;;2.63;;
4547;SDS011;2286;51.570;7.090;2022-07-11T03:40:51;3.97;;;2.67;;
4547;SDS011;2286;51.570;7.090;2022-07-11T03:43:18;4.80;;;2.23;;
4547;SDS011;2286;51.570;7.090;2022-07-11T03:45:45;3.57;;;2.33;;
4547;SDS011;2286;51.570;7.090;2022-07-11T03:48:12;5.57;;;2.83;;
4547;SDS011;2286;51.570;7.090;2022-07-11T03:50:39;3.80;;;2.90;;
4547;SDS011;2286;51.570;7.090;2022-07-11T03:53:06;3.53;;;2.47;;
4547;SDS011;2286;51.570;7.090;2022-07-11T03:55:33;4.13;;;2.57;;
4547;SDS011;2286;51.570;7.090;2022-07-11T03:58:03;4.47;;;2.27;;
4547;SDS011;2286;51.570;7.090;2022-07-11T04:00:30;2.93;;;2.30;;
4547;SDS011;2286;51.570;7.090;2022-07-11T04:02:57;3.23;;;2.23;;
4547;SDS011;2286;51.570;7.090;2022-07-11T04:05:25;4.53;;;2.50;;
4547;SDS011;2286;51.570;7.090;2022-07-11T04:07:52;2.80;;;2.20;;
4547;SDS011;2286;51.570;7.090;2022-07-11T04:10:19;2.70;;;1.83;;
4547;SDS011;2286;51.570;7.090;2022-07-11T04:12:46;2.53;;;1.80;;
4547;SDS011;2286;51.570;7.090;2022-07-11T04:15:14;7.70;;;3.20;;
4547;SDS011;2286;51.570;7.090;2022-07-11T04:17:41;4.03;;;1.80;;
4547;SDS011;2286;51.570;7.090;2022-07-11T04:20:08;3.60;;;2.10;;
4547;SDS011;2286;51.570;7.090;2022-07-11T04:22:36;2.37;;;1.80;;
4547;SDS011;2286;51.570;7.090;2022-07-11T04:25:04;3.70;;;2.03;;
4547;SDS011;2286;51.570;7.090;2022-07-11T04:27:31;4.60;;;2.20;;
4547;SDS011;2286;51.570;7.090;2022-07-11T04:29:58;2.53;;;2.33;;
4547;SDS011;2286;51.570;7.090;2022-07-11T04:32:26;2.93;;;2.13;;
4547;SDS011;2286;51.570;7.090;2022-07-11T04:34:53;2.33;;;2.03;;
4547;SDS011;2286;51.570;7.090;2022-07-11T04:37:20;3.57;;;2.00;;
4547;SDS011;2286;51.570;7.090;2022-07-11T04:39:47;3.40;;;2.60;;
4547;SDS011;2286;51.570;7.090;2022-07-11T04:42:14;3.83;;;2.27;;
4547;SDS011;2286;51.570;7.090;2022-07-11T04:44:41;2.93;;;1.90;;
4547;SDS011;2286;51.570;7.090;2022-07-11T04:47:07;2.10;;;1.90;;
4547;SDS011;2286;51.570;7.090;2022-07-11T04:49:36;2.57;;;2.03;;
4547;SDS011;2286;51.570;7.090;2022-07-11T04:52:03;5.00;;;1.77;;
4547;SDS011;2286;51.570;7.090;2022-07-11T04:54:31;2.50;;;1.53;;
4547;SDS011;2286;51.570;7.090;2022-07-11T04:56:58;3.10;;;1.77;;
4547;SDS011;2286;51.570;7.090;2022-07-11T04:59:25;2.23;;;1.50;;
4547;SDS011;2286;51.570;7.090;2022-07-11T05:01:52;1.63;;;1.53;;
4547;SDS011;2286;51.570;7.090;2022-07-11T05:04:19;2.70;;;1.23;;
4547;SDS011;2286;51.570;7.090;2022-07-11T05:06:47;1.90;;;1.33;;
4547;SDS011;2286;51.570;7.090;2022-07-11T05:09:14;1.67;;;1.20;;
4547;SDS011;2286;51.570;7.090;2022-07-11T05:11:41;2.13;;;1.00;;
4547;SDS011;2286;51.570;7.090;2022-07-11T05:14:08;1.90;;;1.53;;
4547;SDS011;2286;51.570;7.090;2022-07-11T05:16:35;2.93;;;1.70;;
4547;SDS011;2286;51.570;7.090;2022-07-11T05:19:02;1.73;;;1.20;;
4547;SDS011;2286;51.570;7.090;2022-07-11T05:21:29;2.17;;;1.40;;
4547;SDS011;2286;51.570;7.090;2022-07-11T05:23:57;1.70;;;1.17;;
4547;SDS011;2286;51.570;7.090;2022-07-11T05:26:24;1.60;;;1.20;;
4547;SDS011;2286;51.570;7.090;2022-07-11T05:28:51;1.77;;;1.00;;
4547;SDS011;2286;51.570;7.090;2022-07-11T05:31:18;1.33;;;1.00;;
4547;SDS011;2286;51.570;7.090;2022-07-11T05:33:45;2.10;;;0.90;;
4547;SDS011;2286;51.570;7.090;2022-07-11T05:36:12;2.53;;;1.37;;
4547;SDS011;2286;51.570;7.090;2022-07-11T05:38:39;0.97;;;0.90;;
4547;SDS011;2286;51.570;7.090;2022-07-11T05:41:07;1.07;;;0.90;;
4547;SDS011;2286;51.570;7.090;2022-07-11T05:43:34;1.30;;;1.13;;
4547;SDS011;2286;51.570;7.090;2022-07-11T05:46:03;1.70;;;1.00;;
4547;SDS011;2286;51.570;7.090;2022-07-11T05:48:31;0.93;;;0.83;;
4547;SDS011;2286;51.570;7.090;2022-07-11T05:50:58;1.43;;;1.00;;
4547;SDS011;2286;51.570;7.090;2022-07-11T05:53:25;2.43;;;1.23;;
4547;SDS011;2286;51.570;7.090;2022-07-11T05:55:52;4.30;;;1.30;;
4547;SDS011;2286;51.570;7.090;2022-07-11T05:58:20;1.10;;;1.00;;
4547;SDS011;2286;51.570;7.090;2022-07-11T06:00:47;1.00;;;0.90;;
4547;SDS011;2286;51.570;7.090;2022-07-11T06:03:14;1.37;;;0.90;;
4547;SDS011;2286;51.570;7.090;2022-07-11T06:05:41;1.00;;;0.90;;
4547;SDS011;2286;51.570;7.090;2022-07-11T06:08:08;1.20;;;0.70;;
4547;SDS011;2286;51.570;7.090;2022-07-11T06:10:52;1.40;;;0.80;;
4547;SDS011;2286;51.570;7.090;2022-07-11T06:13:20;0.90;;;0.80;;
4547;SDS011;2286;51.570;7.090;2022-07-11T06:15:47;1.30;;;1.00;;
4547;SDS011;2286;51.570;7.090;2022-07-11T06:18:14;2.13;;;0.90;;
4547;SDS011;2286;51.570;7.090;2022-07-11T06:20:41;1.00;;;0.83;;
4547;SDS011;2286;51.570;7.090;2022-07-11T06:23:08;1.00;;;0.80;;
4547;SDS011;2286;51.570;7.090;2022-07-11T06:25:35;1.17;;;0.80;;
4547;SDS011;2286;51.570;7.090;2022-07-11T06:28:03;1.37;;;1.00;;
4547;SDS011;2286;51.570;7.090;2022-07-11T06:30:31;1.40;;;0.90;;
4547;SDS011;2286;51.570;7.090;2022-07-11T06:32:58;1.30;;;0.80;;
4547;SDS011;2286;51.570;7.090;2022-07-11T06:35:25;1.33;;;0.80;;
4547;SDS011;2286;51.570;7.090;2022-07-11T06:37:52;1.00;;;0.90;;
4547;SDS011;2286;51.570;7.090;2022-07-11T06:40:19;1.07;;;0.80;;
4547;SDS011;2286;51.570;7.090;2022-07-11T06:42:46;0.80;;;0.77;;
4547;SDS011;2286;51.570;7.090;2022-07-11T06:45:13;1.13;;;0.90;;
4547;SDS011;2286;51.570;7.090;2022-07-11T06:47:41;1.13;;;0.90;;
4547;SDS011;2286;51.570;7.090;2022-07-11T06:50:08;1.40;;;0.90;;
4547;SDS011;2286;51.570;7.090;2022-07-11T06:52:36;1.63;;;0.87;;
4547;SDS011;2286;51.570;7.090;2022-07-11T06:55:03;2.50;;;0.77;;
4547;SDS011;2286;51.570;7.090;2022-07-11T06:57:30;2.27;;;1.20;;
4547;SDS011;2286;51.570;7.090;2022-07-11T06:59:57;1.33;;;1.03;;
4547;SDS011;2286;51.570;7.090;2022-07-11T07:02:24;1.53;;;1.10;;
4547;SDS011;2286;51.570;7.090;2022-07-11T07:04:56;1.67;;;1.00;;
4547;SDS011;2286;51.570;7.090;2022-07-11T07:07:24;1.30;;;1.20;;
4547;SDS011;2286;51.570;7.090;2022-07-11T07:09:50;2.20;;;1.07;;
4547;SDS011;2286;51.570;7.090;2022-07-11T07:12:18;1.60;;;1.10;;
4547;SDS011;2286;51.570;7.090;2022-07-11T07:14:45;1.67;;;1.30;;
4547;SDS011;2286;51.570;7.090;2022-07-11T07:17:12;1.30;;;1.13;;
4547;SDS011;2286;51.570;7.090;2022-07-11T07:19:39;2.43;;;1.00;;
4547;SDS011;2286;51.570;7.090;2022-07-11T07:22:07;1.30;;;1.03;;
4547;SDS011;2286;51.570;7.090;2022-07-11T07:24:34;1.40;;;1.00;;
4547;SDS011;2286;51.570;7.090;2022-07-11T07:27:02;2.37;;;1.20;;
4547;SDS011;2286;51.570;7.090;2022-07-11T07:29:30;1.20;;;1.10;;
4547;SDS011;2286;51.570;7.090;2022-07-11T07:31:57;1.33;;;0.97;;
4547;SDS011;2286;51.570;7.090;2022-07-11T07:34:24;1.87;;;1.00;;
4547;SDS011;2286;51.570;7.090;2022-07-11T07:36:52;1.07;;;0.80;;
4547;SDS011;2286;51.570;7.090;2022-07-11T07:39:20;1.73;;;1.03;;
4547;SDS011;2286;51.570;7.090;2022-07-11T07:41:47;1.07;;;0.97;;
4547;SDS011;2286;51.570;7.090;2022-07-11T07:44:14;1.00;;;0.90;;
4547;SDS011;2286;51.570;7.090;2022-07-11T07:46:41;1.83;;;0.97;;
4547;SDS011;2286;51.570;7.090;2022-07-11T07:49:07;1.03;;;0.93;;
4547;SDS011;2286;51.570;7.090;2022-07-11T07:51:35;1.80;;;1.13;;
4547;SDS011;2286;51.570;7.090;2022-07-11T07:54:03;1.60;;;1.20;;
4547;SDS011;2286;51.570;7.090;2022-07-11T07:56:31;2.10;;;0.90;;
4547;SDS011;2286;51.570;7.090;2022-07-11T07:58:58;1.43;;;1.00;;
4547;SDS011;2286;51.570;7.090;2022-07-11T08:01:25;1.40;;;1.10;;
4547;SDS011;2286;51.570;7.090;2022-07-11T08:04:00;1.20;;;0.93;;
4547;SDS011;2286;51.570;7.090;2022-07-11T08:06:27;2.07;;;1.20;;
4547;SDS011;2286;51.570;7.090;2022-07-11T08:08:54;1.90;;;0.97;;
4547;SDS011;2286;51.570;7.090;2022-07-11T08:11:21;1.30;;;1.00;;
4547;SDS011;2286;51.570;7.090;2022-07-11T08:13:49;1.40;;;1.07;;
4547;SDS011;2286;51.570;7.090;2022-07-11T08:16:16;1.10;;;0.90;;
4547;SDS011;2286;51.570;7.090;2022-07-11T08:18:43;1.10;;;1.00;;
4547;SDS011;2286;51.570;7.090;2022-07-11T08:21:11;1.53;;;1.20;;
4547;SDS011;2286;51.570;7.090;2022-07-11T08:23:38;1.30;;;0.87;;
4547;SDS011;2286;51.570;7.090;2022-07-11T08:26:05;1.23;;;0.83;;
4547;SDS011;2286;51.570;7.090;2022-07-11T08:28:32;1.27;;;0.80;;
4547;SDS011;2286;51.570;7.090;2022-07-11T08:31:01;1.73;;;1.00;;
4547;SDS011;2286;51.570;7.090;2022-07-11T08:33:28;0.80;;;0.80;;
4547;SDS011;2286;51.570;7.090;2022-07-11T08:35:55;3.73;;;1.10;;
4547;SDS011;2286;51.570;7.090;2022-07-11T08:38:21;1.20;;;0.90;;
4547;SDS011;2286;51.570;7.090;2022-07-11T08:40:48;1.67;;;0.90;;
4547;SDS011;2286;51.570;7.090;2022-07-11T08:43:17;1.33;;;0.90;;
4547;SDS011;2286;51.570;7.090;2022-07-11T08:45:48;1.10;;;0.80;;
4547;SDS011;2286;51.570;7.090;2022-07-11T08:48:17;2.40;;;1.00;;
4547;SDS011;2286;51.570;7.090;2022-07-11T08:50:46;2.87;;;1.30;;
4547;SDS011;2286;51.570;7.090;2022-07-11T08:53:13;3.60;;;0.90;;
4547;SDS011;2286;51.570;7.090;2022-07-11T08:55:40;2.07;;;1.27;;
4547;SDS011;2286;51.570;7.090;2022-07-11T08:58:08;1.00;;;0.80;;
4547;SDS011;2286;51.570;7.090;2022-07-11T09:00:35;1.47;;;0.70;;
4547;SDS011;2286;51.570;7.090;2022-07-11T09:03:03;3.13;;;1.00;;
4547;SDS011;2286;51.570;7.090;2022-07-11T09:05:32;0.87;;;0.70;;
4547;SDS011;2286;51.570;7.090;2022-07-11T09:07:59;1.27;;;0.60;;
4547;SDS011;2286;51.570;7.090;2022-07-11T09:10:26;1.30;;;0.90;;
4547;SDS011;2286;51.570;7.090;2022-07-11T09:13:00;1.43;;;0.60;;
4547;SDS011;2286;51.570;7.090;2022-07-11T09:15:32;0.70;;;0.60;;
4547;SDS011;2286;51.570;7.090;2022-07-11T09:18:00;1.90;;;1.30;;
4547;SDS011;2286;51.570;7.090;2022-07-11T09:20:28;1.00;;;0.63;;
4547;SDS011;2286;51.570;7.090;2022-07-11T09:23:23;0.90;;;0.60;;
4547;SDS011;2286;51.570;7.090;2022-07-11T09:26:07;0.80;;;0.63;;
4547;SDS011;2286;51.570;7.090;2022-07-11T09:28:34;0.90;;;0.63;;
4547;SDS011;2286;51.570;7.090;2022-07-11T09:31:14;0.80;;;0.60;;
4547;SDS011;2286;51.570;7.090;2022-07-11T09:33:57;1.87;;;0.70;;
4547;SDS011;2286;51.570;7.090;2022-07-11T09:36:33;0.60;;;0.60;;
4547;SDS011;2286;51.570;7.090;2022-07-11T09:39:06;0.70;;;0.53;;
4547;SDS011;2286;51.570;7.090;2022-07-11T09:41:33;1.23;;;0.60;;
4547;SDS011;2286;51.570;7.090;2022-07-11T09:46:52;1.00;;;0.60;;
4547;SDS011;2286;51.570;7.090;2022-07-11T09:49:28;1.00;;;0.60;;
4547;SDS011;2286;51.570;7.090;2022-07-11T09:52:05;0.80;;;0.60;;
4547;SDS011;2286;51.570;7.090;2022-07-11T09:54:34;0.63;;;0.60;;
4547;SDS011;2286;51.570;7.090;2022-07-11T09:57:27;1.10;;;0.70;;
4547;SDS011;2286;51.570;7.090;2022-07-11T09:59:55;1.10;;;0.60;;
4547;SDS011;2286;51.570;7.090;2022-07-11T10:02:22;1.33;;;0.60;;
4547;SDS011;2286;51.570;7.090;2022-07-11T10:04:50;0.83;;;0.70;;
4547;SDS011;2286;51.570;7.090;2022-07-11T10:07:18;0.63;;;0.60;;
4547;SDS011;2286;51.570;7.090;2022-07-11T10:09:46;0.60;;;0.60;;
4547;SDS011;2286;51.570;7.090;2022-07-11T10:12:13;0.70;;;0.50;;
4547;SDS011;2286;51.570;7.090;2022-07-11T10:14:41;0.50;;;0.50;;
4547;SDS011;2286;51.570;7.090;2022-07-11T10:17:09;0.60;;;0.60;;
4547;SDS011;2286;51.570;7.090;2022-07-11T10:19:42;0.70;;;0.50;;
4547;SDS011;2286;51.570;7.090;2022-07-11T10:22:17;1.10;;;0.60;;
4547;SDS011;2286;51.570;7.090;2022-07-11T10:24:54;0.60;;;0.57;;
4547;SDS011;2286;51.570;7.090;2022-07-11T10:27:29;1.13;;;0.60;;
4547;SDS011;2286;51.570;7.090;2022-07-11T10:30:02;0.70;;;0.60;;
4547;SDS011;2286;51.570;7.090;2022-07-11T10:32:30;0.60;;;0.50;;
4547;SDS011;2286;51.570;7.090;2022-07-11T10:35:08;0.77;;;0.50;;
4547;SDS011;2286;51.570;7.090;2022-07-11T10:37:46;0.90;;;0.60;;
4547;SDS011;2286;51.570;7.090;2022-07-11T10:40:14;0.70;;;0.70;;
4547;SDS011;2286;51.570;7.090;2022-07-11T10:42:42;0.70;;;0.60;;
4547;SDS011;2286;51.570;7.090;2022-07-11T10:45:09;0.60;;;0.60;;
4547;SDS011;2286;51.570;7.090;2022-07-11T10:47:40;0.90;;;0.80;;
4547;SDS011;2286;51.570;7.090;2022-07-11T10:50:13;1.00;;;0.90;;
4547;SDS011;2286;51.570;7.090;2022-07-11T10:53:00;0.90;;;0.80;;
4547;SDS011;2286;51.570;7.090;2022-07-11T10:55:36;0.90;;;0.60;;
4547;SDS011;2286;51.570;7.090;2022-07-11T10:58:11;1.00;;;0.60;;
4547;SDS011;2286;51.570;7.090;2022-07-11T11:00:46;1.10;;;0.80;;
4547;SDS011;2286;51.570;7.090;2022-07-11T11:03:15;2.13;;;1.13;;
4547;SDS011;2286;51.570;7.090;2022-07-11T11:05:44;0.60;;;0.60;;
4547;SDS011;2286;51.570;7.090;2022-07-11T11:11:33;0.70;;;0.60;;
4547;SDS011;2286;51.570;7.090;2022-07-11T11:14:19;2.20;;;0.70;;
4547;SDS011;2286;51.570;7.090;2022-07-11T11:16:48;0.80;;;0.63;;
4547;SDS011;2286;51.570;7.090;2022-07-11T11:22:20;1.20;;;0.60;;
4547;SDS011;2286;51.570;7.090;2022-07-11T11:24:48;0.70;;;0.60;;
4547;SDS011;2286;51.570;7.090;2022-07-11T11:27:19;0.83;;;0.80;;
4547;SDS011;2286;51.570;7.090;2022-07-11T11:29:51;0.80;;;0.60;;
4547;SDS011;2286;51.570;7.090;2022-07-11T11:32:19;0.80;;;0.70;;
4547;SDS011;2286;51.570;7.090;2022-07-11T11:34:47;0.80;;;0.67;;
4547;SDS011;2286;51.570;7.090;2022-07-11T11:37:15;1.27;;;0.80;;
4547;SDS011;2286;51.570;7.090;2022-07-11T11:39:44;0.80;;;0.60;;
4547;SDS011;2286;51.570;7.090;2022-07-11T11:42:12;1.10;;;0.70;;
4547;SDS011;2286;51.570;7.090;2022-07-11T11:44:54;0.80;;;0.80;;
4547;SDS011;2286;51.570;7.090;2022-07-11T11:47:24;2.80;;;0.70;;
4547;SDS011;2286;51.570;7.090;2022-07-11T11:49:51;0.80;;;0.77;;
4547;SDS011;2286;51.570;7.090;2022-07-11T11:52:19;0.80;;;0.70;;
4547;SDS011;2286;51.570;7.090;2022-07-11T11:54:50;0.83;;;0.60;;
4547;SDS011;2286;51.570;7.090;2022-07-11T11:57:19;2.20;;;0.80;;
4547;SDS011;2286;51.570;7.090;2022-07-11T11:59:48;1.10;;;0.80;;
4547;SDS011;2286;51.570;7.090;2022-07-11T12:02:21;1.33;;;0.70;;
4547;SDS011;2286;51.570;7.090;2022-07-11T12:04:53;1.00;;;0.80;;
4547;SDS011;2286;51.570;7.090;2022-07-11T12:07:22;1.57;;;0.77;;
4547;SDS011;2286;51.570;7.090;2022-07-11T12:09:50;0.80;;;0.80;;
4547;SDS011;2286;51.570;7.090;2022-07-11T12:12:21;0.80;;;0.63;;
4547;SDS011;2286;51.570;7.090;2022-07-11T12:15:06;0.80;;;0.73;;
4547;SDS011;2286;51.570;7.090;2022-07-11T12:17:52;0.63;;;0.60;;
4547;SDS011;2286;51.570;7.090;2022-07-11T12:20:38;1.20;;;0.70;;
4547;SDS011;2286;51.570;7.090;2022-07-11T12:23:07;1.10;;;0.70;;
4547;SDS011;2286;51.570;7.090;2022-07-11T12:25:35;0.80;;;0.70;;
4547;SDS011;2286;51.570;7.090;2022-07-11T12:28:02;1.27;;;0.80;;
4547;SDS011;2286;51.570;7.090;2022-07-11T12:30:30;0.70;;;0.60;;
4547;SDS011;2286;51.570;7.090;2022-07-11T12:33:06;0.70;;;0.60;;
4547;SDS011;2286;51.570;7.090;2022-07-11T12:35:34;1.10;;;0.70;;
4547;SDS011;2286;51.570;7.090;2022-07-11T12:38:02;0.73;;;0.60;;
4547;SDS011;2286;51.570;7.090;2022-07-11T12:40:29;3.13;;;0.90;;
4547;SDS011;2286;51.570;7.090;2022-07-11T12:42:56;0.80;;;0.70;;
4547;SDS011;2286;51.570;7.090;2022-07-11T12:45:23;0.77;;;0.67;;
4547;SDS011;2286;51.570;7.090;2022-07-11T12:47:49;0.70;;;0.70;;
4547;SDS011;2286;51.570;7.090;2022-07-11T12:50:20;1.17;;;1.07;;
4547;SDS011;2286;51.570;7.090;2022-07-11T12:52:48;0.80;;;0.80;;
4547;SDS011;2286;51.570;7.090;2022-07-11T12:55:20;1.40;;;1.30;;
4547;SDS011;2286;51.570;7.090;2022-07-11T12:58:00;1.17;;;1.03;;
4547;SDS011;2286;51.570;7.090;2022-07-11T13:00:31;2.70;;;1.53;;
4547;SDS011;2286;51.570;7.090;2022-07-11T13:03:00;1.17;;;1.07;;
4547;SDS011;2286;51.570;7.090;2022-07-11T13:05:29;2.17;;;1.63;;
4547;SDS011;2286;51.570;7.090;2022-07-11T13:07:56;1.93;;;1.63;;
4547;SDS011;2286;51.570;7.090;2022-07-11T13:10:40;1.20;;;1.10;;
4547;SDS011;2286;51.570;7.090;2022-07-11T13:13:17;1.30;;;1.20;;
4547;SDS011;2286;51.570;7.090;2022-07-11T13:15:44;1.10;;;1.00;;
4547;SDS011;2286;51.570;7.090;2022-07-11T13:18:13;1.00;;;0.90;;
4547;SDS011;2286;51.570;7.090;2022-07-11T13:20:42;0.93;;;0.90;;
4547;SDS011;2286;51.570;7.090;2022-07-11T13:23:08;1.20;;;0.90;;
4547;SDS011;2286;51.570;7.090;2022-07-11T13:25:36;0.80;;;0.80;;
4547;SDS011;2286;51.570;7.090;2022-07-11T13:28:03;1.13;;;0.80;;
4547;SDS011;2286;51.570;7.090;2022-07-11T13:30:32;1.20;;;0.90;;
4547;SDS011;2286;51.570;7.090;2022-07-11T13:32:59;0.77;;;0.70;;
4547;SDS011;2286;51.570;7.090;2022-07-11T13:35:26;0.70;;;0.70;;
4547;SDS011;2286;51.570;7.090;2022-07-11T13:37:55;1.93;;;0.80;;
4547;SDS011;2286;51.570;7.090;2022-07-11T13:40:22;1.70;;;0.80;;
4547;SDS011;2286;51.570;7.090;2022-07-11T13:42:51;1.07;;;0.93;;
4547;SDS011;2286;51.570;7.090;2022-07-11T13:45:18;1.00;;;0.80;;
4547;SDS011;2286;51.570;7.090;2022-07-11T13:47:46;1.63;;;0.77;;
4547;SDS011;2286;51.570;7.090;2022-07-11T13:50:14;0.90;;;0.73;;
4547;SDS011;2286;51.570;7.090;2022-07-11T13:52:41;1.07;;;0.70;;
4547;SDS011;2286;51.570;7.090;2022-07-11T13:55:14;1.00;;;0.80;;
4547;SDS011;2286;51.570;7.090;2022-07-11T13:57:41;1.97;;;0.87;;
4547;SDS011;2286;51.570;7.090;2022-07-11T14:00:09;1.07;;;0.97;;
4547;SDS011;2286;51.570;7.090;2022-07-11T14:02:36;1.33;;;0.70;;
4547;SDS011;2286;51.570;7.090;2022-07-11T14:05:04;1.60;;;0.83;;
4547;SDS011;2286;51.570;7.090;2022-07-11T14:07:31;1.80;;;0.80;;
4547;SDS011;2286;51.570;7.090;2022-07-11T14:09:58;1.03;;;0.90;;
4547;SDS011;2286;51.570;7.090;2022-07-11T14:12:26;1.10;;;0.90;;
4547;SDS011;2286;51.570;7.090;2022-07-11T14:14:54;3.17;;;1.10;;
4547;SDS011;2286;51.570;7.090;2022-07-11T14:17:21;1.07;;;0.97;;
4547;SDS011;2286;51.570;7.090;2022-07-11T14:19:50;2.10;;;0.90;;
4547;SDS011;2286;51.570;7.090;2022-07-11T14:22:17;3.53;;;0.80;;
4547;SDS011;2286;51.570;7.090;2022-07-11T14:24:44;1.20;;;0.87;;
4547;SDS011;2286;51.570;7.090;2022-07-11T14:27:11;1.07;;;0.87;;
4547;SDS011;2286;51.570;7.090;2022-07-11T14:29:41;1.80;;;0.90;;
4547;SDS011;2286;51.570;7.090;2022-07-11T14:32:08;1.83;;;0.83;;
4547;SDS011;2286;51.570;7.090;2022-07-11T14:34:36;1.10;;;0.90;;
4547;SDS011;2286;51.570;7.090;2022-07-11T14:37:04;0.90;;;0.90;;
4547;SDS011;2286;51.570;7.090;2022-07-11T14:39:30;1.37;;;0.90;;
4547;SDS011;2286;51.570;7.090;2022-07-11T14:41:58;1.20;;;0.70;;
4547;SDS011;2286;51.570;7.090;2022-07-11T14:44:27;1.40;;;0.90;;
4547;SDS011;2286;51.570;7.090;2022-07-11T14:46:55;0.90;;;0.90;;
4547;SDS011;2286;51.570;7.090;2022-07-11T14:49:22;0.90;;;0.77;;
4547;SDS011;2286;51.570;7.090;2022-07-11T14:51:49;1.00;;;0.80;;
4547;SDS011;2286;51.570;7.090;2022-07-11T14:54:16;1.43;;;0.73;;
4547;SDS011;2286;51.570;7.090;2022-07-11T14:56:43;1.43;;;0.87;;
4547;SDS011;2286;51.570;7.090;2022-07-11T14:59:10;1.90;;;0.70;;
4547;SDS011;2286;51.570;7.090;2022-07-11T15:01:37;0.90;;;0.80;;
4547;SDS011;2286;51.570;7.090;2022-07-11T15:04:06;0.80;;;0.70;;
4547;SDS011;2286;51.570;7.090;2022-07-11T15:06:33;1.47;;;0.70;;
4547;SDS011;2286;51.570;7.090;2022-07-11T15:09:17;0.77;;;0.67;;
4547;SDS011;2286;51.570;7.090;2022-07-11T15:12:01;0.97;;;0.70;;
4547;SDS011;2286;51.570;7.090;2022-07-11T15:14:48;0.80;;;0.70;;
4547;SDS011;2286;51.570;7.090;2022-07-11T15:17:16;1.10;;;0.80;;
4547;SDS011;2286;51.570;7.090;2022-07-11T15:19:44;0.90;;;0.67;;
4547;SDS011;2286;51.570;7.090;2022-07-11T15:22:11;1.33;;;0.73;;
4547;SDS011;2286;51.570;7.090;2022-07-11T15:24:38;0.87;;;0.70;;
4547;SDS011;2286;51.570;7.090;2022-07-11T15:27:05;3.40;;;0.70;;
4547;SDS011;2286;51.570;7.090;2022-07-11T15:29:32;1.77;;;0.70;;
4547;SDS011;2286;51.570;7.090;2022-07-11T15:31:59;0.70;;;0.70;;
4547;SDS011;2286;51.570;7.090;2022-07-11T15:34:25;1.23;;;0.60;;